Shemah Yisrael!
Hear, O Israel: the LORD our God, the LORD is one.
You shall love the LORD your God with all your heart and with all your soul and with all your might.
(Deuteronomy 6:4-5)
Houston / Ellington, TX, United States (KEFD) 29-36N 095-10W
Dec 15, 2019 - 09:50 PM EST / 2019.12.16 0250 UTC
Wind: from the SSE (160 degrees) at 10 MPH (9 KT):0
Visibility: 9 mile(s):0
Sky conditions: mostly cloudy
Temperature: 73 F (23 C)
Dew Point: 68 F (20 C)
Relative Humidity: 83%
Pressure (altimeter): 29.82 in. Hg (1009 hPa)
ob: KEFD 160250Z 16009KT 9SM BKN011 23/20 A2982 
cycle: 3
w e b m a s t e r   a t   s h e m a h   d o t   n e t